Time;durP1;ratioP1;P1;durP2;ratioP2;P2;SDS_P1;SDS_P2;PMS_P1;PMS_P2;Temp;Humidity;BMP_temperature;BMP_pressure;BME280_temperature;BME280_humidity;BME280_pressure;Samples;Min_cycle;Max_cycle;Signal;HPM_P1;HPM_P2
2022/07/27 00:01:36;;;;;;;0.40;0.40;;;12.60;99.90;;;;;;4906658;28;20059;-81
2022/07/27 00:04:02;;;;;;;0.40;0.40;;;12.60;99.90;;;;;;4921516;28;20760;-81
2022/07/27 00:06:28;;;;;;;0.52;0.52;;;12.60;99.90;;;;;;4921666;28;20047;-81
2022/07/27 00:08:54;;;;;;;0.40;0.40;;;12.50;99.90;;;;;;4920249;28;20652;-81
2022/07/27 00:11:20;;;;;;;0.52;0.52;;;12.60;99.90;;;;;;4928819;28;20165;-81
2022/07/27 00:13:46;;;;;;;0.47;0.47;;;12.60;99.90;;;;;;4920785;28;20070;-82
2022/07/27 00:16:12;;;;;;;0.45;0.45;;;12.50;99.90;;;;;;4921280;28;20050;-82
2022/07/27 00:18:38;;;;;;;0.65;0.65;;;12.50;99.90;;;;;;4918900;28;20083;-82
2022/07/27 00:21:04;;;;;;;0.40;0.40;;;12.40;99.90;;;;;;4920611;28;20047;-82
2022/07/27 00:23:30;;;;;;;0.70;0.63;;;12.40;99.90;;;;;;4926746;28;20050;-82
2022/07/27 00:25:56;;;;;;;0.55;0.55;;;12.40;99.90;;;;;;4935512;28;20089;-82
2022/07/27 00:28:22;;;;;;;0.52;0.52;;;12.30;99.90;;;;;;4931376;28;20051;-82
2022/07/27 00:30:48;;;;;;;0.63;0.63;;;12.30;99.90;;;;;;4934413;28;20526;-82
2022/07/27 00:33:13;;;;;;;0.68;0.68;;;12.30;99.90;;;;;;4915208;28;21043;-82
2022/07/27 00:35:39;;;;;;;0.45;0.45;;;12.30;99.90;;;;;;4931353;28;20509;-82
2022/07/27 00:38:05;;;;;;;0.68;0.68;;;12.20;99.90;;;;;;4948356;28;20121;-82
2022/07/27 00:40:31;;;;;;;0.73;0.73;;;12.20;99.90;;;;;;4935669;28;20153;-82
2022/07/27 00:42:57;;;;;;;0.60;0.60;;;12.00;99.90;;;;;;4948665;28;20494;-82
2022/07/27 00:45:23;;;;;;;0.60;0.60;;;12.10;99.90;;;;;;4931564;28;20054;-82
2022/07/27 00:47:49;;;;;;;0.63;0.63;;;12.10;99.90;;;;;;4948599;28;20129;-81
2022/07/27 00:50:14;;;;;;;0.63;0.63;;;12.20;99.90;;;;;;4945510;28;20390;-81
2022/07/27 00:52:42;;;;;;;0.73;0.73;;;12.10;99.90;;;;;;4922513;28;20054;-81
2022/07/27 00:55:08;;;;;;;0.65;0.65;;;12.10;99.90;;;;;;4918732;28;20391;-81
2022/07/27 00:57:34;;;;;;;0.43;0.43;;;12.10;99.90;;;;;;4937170;28;20148;-81
2022/07/27 01:00:00;;;;;;;0.70;0.70;;;12.20;99.90;;;;;;4922568;28;20045;-81
2022/07/27 01:02:26;;;;;;;0.57;0.57;;;12.20;99.90;;;;;;4937917;28;20050;-82
2022/07/27 01:04:52;;;;;;;0.50;0.50;;;12.30;99.90;;;;;;4888385;28;20051;-81
2022/07/27 01:07:18;;;;;;;0.60;0.60;;;12.30;99.90;;;;;;4921003;28;20113;-82
2022/07/27 01:09:57;;;;;;;0.70;0.70;;;12.30;99.90;;;;;;4923719;28;20627;-82
2022/07/27 01:12:31;;;;;;;0.70;0.70;;;12.40;99.90;;;;;;4938924;28;20051;-82
2022/07/27 01:14:57;;;;;;;;;;;12.40;99.90;;;;;;4937273;28;20061;-81
2022/07/27 01:17:23;;;;;;;0.73;0.73;;;12.40;99.90;;;;;;4928973;28;19936;-82
2022/07/27 01:19:49;;;;;;;0.55;0.55;;;12.50;99.90;;;;;;4921079;28;20090;-82
2022/07/27 01:22:15;;;;;;;0.60;0.60;;;12.50;99.90;;;;;;4938519;28;20186;-82
2022/07/27 01:24:41;;;;;;;0.57;0.57;;;12.50;99.90;;;;;;4913163;28;20151;-82
2022/07/27 01:27:07;;;;;;;0.45;0.45;;;12.60;99.90;;;;;;4916066;28;20370;-81
2022/07/27 01:29:34;;;;;;;0.57;0.57;;;12.50;99.90;;;;;;4919802;28;20057;-82
2022/07/27 01:32:00;;;;;;;0.57;0.57;;;12.50;99.90;;;;;;4937605;28;20134;-82
2022/07/27 01:34:26;;;;;;;0.55;0.55;;;12.50;99.90;;;;;;4933020;28;20060;-83
2022/07/27 01:36:52;;;;;;;0.63;0.63;;;12.60;99.90;;;;;;4938359;28;20242;-83
2022/07/27 01:39:18;;;;;;;0.60;0.60;;;12.60;99.90;;;;;;4906557;28;20054;-82
2022/07/27 01:41:45;;;;;;;0.55;0.55;;;12.50;99.90;;;;;;4937064;28;20078;-83
2022/07/27 01:44:12;;;;;;;0.52;0.52;;;12.60;99.90;;;;;;4921950;28;20555;-83
2022/07/27 01:46:37;;;;;;;0.50;0.50;;;12.60;99.90;;;;;;4920281;28;20731;-82
2022/07/27 01:49:04;;;;;;;0.52;0.52;;;12.60;99.90;;;;;;4939009;28;20137;-82
2022/07/27 01:51:30;;;;;;;0.40;0.40;;;12.70;99.90;;;;;;4919206;28;20157;-82
2022/07/27 01:53:56;;;;;;;0.55;0.55;;;12.80;99.90;;;;;;4920034;28;20039;-82
2022/07/27 01:56:21;;;;;;;0.47;0.47;;;12.90;99.90;;;;;;4928874;28;20090;-82
2022/07/27 01:58:47;;;;;;;0.60;0.60;;;12.90;99.90;;;;;;4941943;28;20446;-82
2022/07/27 02:01:13;;;;;;;0.63;0.52;;;13.10;99.90;;;;;;4937719;28;20054;-82
2022/07/27 02:03:39;;;;;;;0.40;0.40;;;13.10;99.90;;;;;;4913268;28;20074;-82
2022/07/27 02:06:06;;;;;;;0.57;0.57;;;13.10;99.90;;;;;;4920129;28;20050;-83
2022/07/27 02:08:33;;;;;;;0.55;0.55;;;13.20;99.90;;;;;;4922108;28;20089;-83
2022/07/27 02:13:43;;;;;;;;;;;13.20;99.90;;;;;;4920319;28;20160;-82
2022/07/27 02:16:09;;;;;;;0.65;0.65;;;13.30;99.90;;;;;;4938970;28;20008;-82
2022/07/27 02:18:35;;;;;;;0.45;0.45;;;13.30;99.90;;;;;;4921260;28;20485;-82
2022/07/27 02:21:01;;;;;;;0.40;0.40;;;13.40;99.90;;;;;;4918840;28;20078;-82
2022/07/27 02:23:27;;;;;;;0.43;0.43;;;13.40;99.90;;;;;;4884898;28;20050;-82
2022/07/27 02:25:52;;;;;;;0.40;0.40;;;13.50;99.90;;;;;;4919904;28;20231;-82
2022/07/27 02:28:18;;;;;;;0.40;0.40;;;13.50;99.90;;;;;;4923655;28;20051;-82
2022/07/27 02:30:45;;;;;;;0.52;0.52;;;13.50;99.90;;;;;;4922434;28;20058;-82
2022/07/27 02:33:10;;;;;;;0.40;0.40;;;13.50;99.90;;;;;;4943247;28;20046;-82
2022/07/27 02:35:36;;;;;;;0.43;0.43;;;13.50;99.90;;;;;;4928916;28;20493;-83
2022/07/27 02:38:02;;;;;;;0.40;0.40;;;13.50;99.90;;;;;;4921023;28;20481;-82
2022/07/27 02:40:28;;;;;;;0.40;0.40;;;13.50;99.90;;;;;;4922749;28;20050;-83
2022/07/27 02:42:54;;;;;;;0.40;0.40;;;13.50;99.90;;;;;;4902630;28;20050;-83
2022/07/27 02:45:20;;;;;;;0.43;0.43;;;13.50;99.90;;;;;;4923362;28;20943;-82
2022/07/27 02:47:46;;;;;;;0.40;0.40;;;13.50;99.90;;;;;;4930468;28;20054;-82
2022/07/27 02:50:12;;;;;;;0.40;0.40;;;13.50;99.90;;;;;;4940233;28;20050;-82
2022/07/27 02:52:38;;;;;;;0.40;0.40;;;13.50;99.90;;;;;;4917292;28;20830;-82
2022/07/27 02:55:05;;;;;;;0.40;0.40;;;13.50;99.90;;;;;;4924537;28;20057;-82
2022/07/27 02:57:33;;;;;;;0.40;0.40;;;13.50;99.90;;;;;;4945500;28;20065;-82
2022/07/27 02:59:59;;;;;;;0.40;0.40;;;13.50;99.90;;;;;;4924011;28;20082;-82
2022/07/27 03:02:25;;;;;;;0.40;0.40;;;13.50;99.90;;;;;;4922313;28;21010;-82
2022/07/27 03:04:51;;;;;;;0.40;0.40;;;13.40;99.90;;;;;;4905022;28;20053;-83
2022/07/27 03:07:17;;;;;;;0.40;0.40;;;13.30;99.90;;;;;;4933903;28;20137;-82
2022/07/27 03:09:43;;;;;;;0.40;0.40;;;13.30;99.90;;;;;;4920460;28;20093;-82
2022/07/27 03:12:09;;;;;;;0.40;0.40;;;13.30;99.90;;;;;;4943924;28;20043;-82
2022/07/27 03:14:34;;;;;;;0.40;0.40;;;13.30;99.90;;;;;;4937827;28;20078;-82
2022/07/27 03:17:00;;;;;;;0.40;0.40;;;13.20;99.90;;;;;;4923705;28;20077;-82
2022/07/27 03:19:26;;;;;;;0.40;0.40;;;13.20;99.90;;;;;;4921008;28;20668;-82
2022/07/27 03:21:52;;;;;;;0.40;0.40;;;13.10;99.90;;;;;;4923685;28;20051;-82
2022/07/27 03:24:18;;;;;;;0.43;0.43;;;13.10;99.90;;;;;;4938985;28;20053;-82
2022/07/27 03:26:45;;;;;;;0.40;0.40;;;13.10;99.90;;;;;;4944937;28;20395;-82
2022/07/27 03:29:12;;;;;;;0.30;0.30;;;13.00;99.90;;;;;;4925858;28;20828;-82
2022/07/27 03:31:38;;;;;;;0.40;0.40;;;13.00;99.90;;;;;;4923159;28;20273;-83
2022/07/27 03:34:04;;;;;;;0.40;0.40;;;13.00;99.90;;;;;;4939412;28;20084;-82
2022/07/27 03:36:29;;;;;;;0.40;0.40;;;13.00;99.90;;;;;;4923833;28;20050;-82
2022/07/27 03:38:55;;;;;;;0.40;0.40;;;12.90;99.90;;;;;;4918367;28;20123;-82
2022/07/27 03:41:21;;;;;;;0.40;0.40;;;13.00;99.90;;;;;;4928124;28;20742;-82
2022/07/27 03:43:47;;;;;;;0.45;0.45;;;12.90;99.90;;;;;;4923740;28;20724;-82
2022/07/27 03:46:13;;;;;;;0.40;0.40;;;12.80;99.90;;;;;;4944035;28;20054;-82
2022/07/27 03:48:39;;;;;;;0.40;0.40;;;12.70;99.90;;;;;;4924466;28;20624;-82
2022/07/27 03:51:05;;;;;;;0.40;0.40;;;12.70;99.90;;;;;;4941550;28;20061;-82
2022/07/27 03:53:31;;;;;;;0.40;0.40;;;12.70;99.90;;;;;;4936073;28;20081;-82
2022/07/27 03:55:57;;;;;;;0.43;0.43;;;12.50;99.90;;;;;;4941607;28;20055;-82
2022/07/27 03:58:23;;;;;;;0.40;0.40;;;12.40;99.90;;;;;;4944503;28;20046;-82
2022/07/27 04:00:49;;;;;;;0.40;0.40;;;12.40;99.90;;;;;;4928807;28;20797;-82
2022/07/27 04:03:16;;;;;;;0.52;0.52;;;12.30;99.90;;;;;;4942326;28;20097;-82
2022/07/27 04:05:42;;;;;;;0.47;0.47;;;12.40;99.90;;;;;;4922302;28;20310;-82
2022/07/27 04:08:08;;;;;;;0.45;0.45;;;12.40;99.90;;;;;;4920487;28;20513;-82
2022/07/27 04:10:34;;;;;;;0.40;0.40;;;12.40;99.90;;;;;;4940060;28;20054;-83
2022/07/27 04:13:00;;;;;;;0.43;0.43;;;12.30;99.90;;;;;;4925174;28;20141;-83
2022/07/27 04:15:26;;;;;;;0.40;0.40;;;12.40;99.90;;;;;;4921342;28;20157;-82
2022/07/27 04:17:52;;;;;;;0.47;0.47;;;12.40;99.90;;;;;;4925487;28;20786;-82
2022/07/27 04:20:18;;;;;;;0.45;0.45;;;12.50;99.90;;;;;;4907997;28;20514;-82
2022/07/27 04:22:44;;;;;;;0.45;0.45;;;12.50;99.90;;;;;;4920599;28;20054;-82
2022/07/27 04:25:10;;;;;;;1.45;0.52;;;12.60;99.90;;;;;;4920604;28;20046;-82
2022/07/27 04:27:36;;;;;;;0.40;0.40;;;12.60;99.90;;;;;;4936294;28;20054;-82
2022/07/27 04:30:04;;;;;;;0.52;0.52;;;12.60;99.90;;;;;;4940651;28;20051;-82
2022/07/27 04:32:30;;;;;;;0.43;0.43;;;12.60;99.90;;;;;;4923295;28;20506;-82
2022/07/27 04:34:56;;;;;;;0.52;0.52;;;12.50;99.90;;;;;;4920806;28;20157;-83
2022/07/27 04:37:22;;;;;;;0.32;0.32;;;12.50;99.90;;;;;;4930498;28;20038;-82
2022/07/27 04:39:48;;;;;;;0.45;0.45;;;12.50;99.90;;;;;;4924797;28;20046;-82
2022/07/27 04:42:13;;;;;;;0.50;0.50;;;12.50;99.90;;;;;;4922035;28;20129;-82
2022/07/27 04:44:39;;;;;;;0.43;0.43;;;12.50;99.90;;;;;;4920217;28;20093;-81
2022/07/27 04:47:05;;;;;;;0.40;0.40;;;12.50;99.90;;;;;;4898113;28;20091;-82
2022/07/27 04:49:31;;;;;;;0.52;0.52;;;12.40;99.90;;;;;;4897817;28;20043;-82
2022/07/27 04:51:57;;;;;;;0.40;0.40;;;12.60;99.90;;;;;;4900635;28;20051;-82
2022/07/27 04:54:22;;;;;;;0.55;0.55;;;12.80;99.90;;;;;;4897931;28;20047;-82
2022/07/27 04:56:48;;;;;;;0.43;0.43;;;12.80;99.90;;;;;;4899485;28;20055;-82
2022/07/27 04:59:14;;;;;;;0.43;0.43;;;12.90;99.90;;;;;;4899903;28;20913;-82
2022/07/27 05:01:40;;;;;;;0.47;0.47;;;12.80;99.90;;;;;;4900978;28;20055;-83
2022/07/27 05:04:06;;;;;;;0.40;0.40;;;12.80;99.90;;;;;;4902318;28;20155;-82
2022/07/27 05:06:32;;;;;;;0.40;0.40;;;12.80;99.90;;;;;;4900306;28;20051;-82
2022/07/27 05:08:58;;;;;;;0.40;0.40;;;12.80;99.90;;;;;;4898264;28;20057;-82
2022/07/27 05:11:24;;;;;;;0.45;0.45;;;12.80;99.90;;;;;;4904686;28;20134;-83
2022/07/27 05:13:50;;;;;;;0.40;0.40;;;12.90;99.90;;;;;;4898577;28;20158;-82
2022/07/27 05:16:16;;;;;;;0.40;0.40;;;12.90;99.90;;;;;;4901494;28;20062;-82
2022/07/27 05:18:42;;;;;;;0.40;0.40;;;13.00;99.90;;;;;;4902125;28;20097;-82
2022/07/27 05:21:08;;;;;;;0.40;0.40;;;13.00;99.90;;;;;;4897805;28;20455;-83
2022/07/27 05:23:34;;;;;;;0.40;0.40;;;13.10;99.90;;;;;;4899396;28;20133;-83
2022/07/27 05:26:00;;;;;;;0.40;0.40;;;13.20;99.90;;;;;;4906489;28;20699;-82
2022/07/27 05:28:27;;;;;;;0.40;0.40;;;13.20;99.90;;;;;;4899373;28;20517;-80
2022/07/27 05:30:53;;;;;;;0.40;0.40;;;13.40;99.90;;;;;;4894696;28;20769;-82
2022/07/27 05:33:19;;;;;;;0.40;0.40;;;13.40;99.90;;;;;;4902051;28;20048;-82
2022/07/27 05:35:45;;;;;;;0.40;0.40;;;13.50;99.90;;;;;;4901914;28;20179;-83
2022/07/27 05:38:10;;;;;;;0.40;0.40;;;13.50;99.90;;;;;;4903103;28;20165;-83
2022/07/27 05:40:40;;;;;;;0.40;0.40;;;13.60;99.90;;;;;;4897832;28;20130;-82
2022/07/27 05:43:05;;;;;;;0.40;0.40;;;13.80;99.90;;;;;;4899685;28;20055;-82
2022/07/27 05:45:31;;;;;;;0.40;0.40;;;13.90;99.90;;;;;;4899602;28;20107;-83
2022/07/27 05:47:58;;;;;;;0.32;0.32;;;13.90;99.90;;;;;;4912094;28;20059;-82
2022/07/27 05:50:24;;;;;;;0.40;0.40;;;14.10;99.90;;;;;;4902544;28;20063;-81
2022/07/27 05:52:50;;;;;;;0.40;0.40;;;14.10;99.90;;;;;;4916509;28;20062;-82
2022/07/27 05:55:16;;;;;;;0.30;0.30;;;14.20;99.90;;;;;;4917333;28;20067;-82
2022/07/27 05:57:42;;;;;;;0.40;0.40;;;14.30;99.90;;;;;;4920812;28;20585;-82
2022/07/27 06:00:09;;;;;;;0.40;0.40;;;14.40;99.90;;;;;;4921017;28;20043;-82
2022/07/27 06:02:35;;;;;;;0.40;0.40;;;14.50;99.90;;;;;;4925245;28;20187;-82
2022/07/27 06:05:01;;;;;;;0.40;0.40;;;14.50;99.90;;;;;;4919393;28;20087;-84
2022/07/27 06:10:11;;;;;;;0.40;0.40;;;14.70;99.90;;;;;;4931258;28;20109;-83
2022/07/27 06:12:41;;;;;;;0.40;0.40;;;14.80;99.90;;;;;;4889047;28;20508;-82
2022/07/27 06:15:08;;;;;;;0.40;0.40;;;14.90;99.90;;;;;;4919306;28;20051;-81
2022/07/27 06:17:35;;;;;;;0.40;0.40;;;14.90;99.90;;;;;;4918584;28;20639;-81
2022/07/27 06:20:02;;;;;;;0.38;0.38;;;15.00;99.90;;;;;;4924078;28;20163;-81
2022/07/27 06:22:28;;;;;;;0.30;0.30;;;14.90;99.90;;;;;;4922685;28;20055;-82
2022/07/27 06:24:54;;;;;;;0.30;0.30;;;15.00;99.90;;;;;;4919757;28;20392;-82
2022/07/27 06:27:20;;;;;;;0.38;0.38;;;15.10;99.90;;;;;;4922625;28;21971;-82
2022/07/27 06:29:45;;;;;;;0.40;0.40;;;15.20;99.90;;;;;;4925687;28;20049;-82
2022/07/27 06:32:11;;;;;;;1.75;0.50;;;15.30;99.90;;;;;;4924095;28;20047;-82
2022/07/27 06:34:37;;;;;;;0.40;0.40;;;15.40;99.90;;;;;;4921057;28;20066;-83
2022/07/27 06:37:03;;;;;;;0.30;0.30;;;15.50;99.90;;;;;;4909961;28;20061;-82
2022/07/27 06:39:29;;;;;;;0.30;0.30;;;15.60;99.90;;;;;;4920555;28;20406;-83
2022/07/27 06:41:55;;;;;;;0.30;0.30;;;15.70;99.90;;;;;;4907053;28;20046;-82
2022/07/27 06:44:21;;;;;;;0.30;0.30;;;15.80;99.90;;;;;;4924260;28;20043;-82
2022/07/27 06:46:48;;;;;;;0.40;0.40;;;15.80;99.90;;;;;;4918881;28;20706;-83
2022/07/27 06:49:14;;;;;;;0.30;0.30;;;16.00;99.90;;;;;;4923258;28;20145;-83
2022/07/27 06:51:40;;;;;;;0.30;0.30;;;16.10;99.90;;;;;;4918173;28;20051;-82
2022/07/27 06:54:06;;;;;;;0.35;0.35;;;16.20;99.90;;;;;;4925143;28;20047;-81
2022/07/27 06:56:32;;;;;;;0.30;0.30;;;16.30;99.90;;;;;;4924320;28;20066;-81
2022/07/27 06:58:58;;;;;;;0.30;0.30;;;16.40;99.90;;;;;;4920853;28;20509;-83
2022/07/27 07:01:23;;;;;;;0.30;0.30;;;16.40;99.90;;;;;;4908717;28;21062;-82
2022/07/27 07:03:49;;;;;;;0.30;0.30;;;16.40;99.90;;;;;;4911608;28;20058;-84
2022/07/27 07:06:15;;;;;;;0.30;0.30;;;16.40;99.90;;;;;;4933446;28;20053;-82
2022/07/27 07:08:41;;;;;;;0.30;0.30;;;16.50;99.90;;;;;;4919229;28;20097;-82
2022/07/27 07:11:09;;;;;;;0.30;0.30;;;16.50;99.90;;;;;;4938419;28;20051;-83
2022/07/27 07:13:34;;;;;;;0.40;0.40;;;16.60;99.90;;;;;;4920116;28;20058;-82
2022/07/27 07:16:00;;;;;;;0.30;0.30;;;16.60;99.90;;;;;;4924885;28;20049;-83
2022/07/27 07:18:26;;;;;;;0.40;0.40;;;16.60;99.90;;;;;;4919029;28;20097;-82
2022/07/27 07:20:53;;;;;;;0.30;0.30;;;16.70;99.90;;;;;;4919941;28;20987;-82
2022/07/27 07:23:19;;;;;;;0.30;0.30;;;16.90;99.90;;;;;;4920795;28;20090;-83
2022/07/27 07:25:44;;;;;;;0.30;0.30;;;17.00;99.90;;;;;;4910588;28;20115;-80
2022/07/27 07:28:10;;;;;;;0.40;0.40;;;17.00;99.90;;;;;;4914428;28;20062;-83
2022/07/27 07:30:36;;;;;;;0.30;0.30;;;17.00;99.90;;;;;;4920249;28;20051;-81
2022/07/27 07:33:07;;;;;;;0.30;0.30;;;17.20;99.90;;;;;;4907436;28;20945;-85
2022/07/27 07:35:33;;;;;;;0.30;0.30;;;17.20;99.90;;;;;;4894585;28;20047;-82
2022/07/27 07:37:59;;;;;;;0.35;0.35;;;16.90;99.90;;;;;;4903393;28;20348;-83
2022/07/27 07:40:25;;;;;;;0.30;0.30;;;17.00;99.90;;;;;;4880154;28;20047;-83
2022/07/27 07:42:59;;;;;;;0.40;0.40;;;17.00;99.90;;;;;;4881697;28;20050;-81
2022/07/27 07:45:25;;;;;;;0.30;0.30;;;16.80;99.90;;;;;;4900805;28;20457;-83
2022/07/27 07:47:52;;;;;;;0.30;0.30;;;17.00;99.90;;;;;;4886357;28;21042;-82
2022/07/27 07:50:18;;;;;;;0.30;0.30;;;17.20;99.90;;;;;;4896812;28;20066;-82
2022/07/27 07:52:47;;;;;;;0.30;0.30;;;17.20;99.90;;;;;;4897267;28;20066;-82
2022/07/27 07:55:13;;;;;;;0.30;0.30;;;17.30;99.90;;;;;;4897760;28;20055;-79
2022/07/27 07:57:38;;;;;;;0.40;0.40;;;17.10;99.90;;;;;;4899142;28;20065;-78
2022/07/27 08:00:06;;;;;;;0.30;0.30;;;17.20;99.90;;;;;;4899956;28;20110;-82
2022/07/27 08:02:40;;;;;;;0.32;0.32;;;17.30;99.90;;;;;;4902178;28;20046;-84
2022/07/27 08:05:07;;;;;;;0.30;0.30;;;17.40;99.90;;;;;;4899277;28;20057;-82
2022/07/27 08:07:32;;;;;;;0.30;0.30;;;17.20;99.90;;;;;;4879044;28;20051;-83
2022/07/27 08:10:08;;;;;;;0.38;0.38;;;17.40;99.90;;;;;;4898233;28;20073;-84
2022/07/27 08:12:35;;;;;;;0.38;0.38;;;17.60;99.90;;;;;;4888364;28;20062;-83
2022/07/27 08:15:01;;;;;;;0.30;0.30;;;17.60;99.90;;;;;;4905223;28;20047;-84
2022/07/27 08:17:27;;;;;;;0.30;0.30;;;17.90;99.90;;;;;;4909163;28;20054;-82
2022/07/27 08:19:52;;;;;;;0.35;0.35;;;17.80;99.90;;;;;;4906795;28;20038;-86
2022/07/27 08:22:18;;;;;;;0.30;0.30;;;17.50;99.90;;;;;;4914989;28;20062;-84
2022/07/27 08:24:44;;;;;;;0.30;0.30;;;17.80;99.90;;;;;;4897772;28;20047;-84
2022/07/27 08:27:10;;;;;;;0.30;0.30;;;18.00;99.90;;;;;;4873411;28;20051;-83
2022/07/27 08:29:36;;;;;;;0.30;0.30;;;18.20;99.90;;;;;;4902092;28;20051;-83
2022/07/27 08:32:02;;;;;;;0.30;0.30;;;18.30;99.90;;;;;;4901974;28;20550;-82
2022/07/27 08:34:27;;;;;;;0.30;0.30;;;18.40;99.90;;;;;;4898150;28;20086;-84
2022/07/27 08:36:54;;;;;;;0.40;0.40;;;18.40;99.90;;;;;;4877636;28;20157;-82
2022/07/27 08:39:19;;;;;;;0.30;0.30;;;18.80;99.90;;;;;;4904824;28;20050;-83
2022/07/27 08:41:46;;;;;;;0.30;0.30;;;19.00;99.90;;;;;;4915053;28;21223;-83
2022/07/27 08:44:13;;;;;;;0.30;0.30;;;19.00;99.90;;;;;;4890327;28;20047;-83
2022/07/27 08:46:43;;;;;;;0.30;0.30;;;19.10;99.90;;;;;;4900946;28;20050;-84
2022/07/27 08:49:09;;;;;;;0.30;0.30;;;19.40;99.90;;;;;;4898635;28;20086;-82
2022/07/27 08:51:35;;;;;;;0.30;0.30;;;20.20;99.90;;;;;;4905149;28;20659;-84
2022/07/27 08:54:01;;;;;;;0.30;0.30;;;20.70;99.90;;;;;;4914685;28;20056;-82
2022/07/27 08:56:27;;;;;;;0.30;0.30;;;20.70;99.90;;;;;;4923517;28;20383;-82
2022/07/27 08:58:53;;;;;;;0.30;0.30;;;21.10;99.90;;;;;;4921643;28;20091;-82
2022/07/27 09:01:18;;;;;;;0.30;0.30;;;21.40;99.90;;;;;;4921942;28;20045;-82
2022/07/27 09:03:45;;;;;;;0.20;0.20;;;21.30;99.90;;;;;;4942634;28;20058;-82
2022/07/27 09:06:11;;;;;;;0.30;0.30;;;21.40;99.90;;;;;;4925076;28;20124;-81
2022/07/27 09:08:40;;;;;;;0.30;0.30;;;21.10;99.90;;;;;;4925932;28;20157;-84
2022/07/27 09:11:14;;;;;;;0.30;0.30;;;21.00;99.90;;;;;;4923289;28;20100;-82
2022/07/27 09:13:40;;;;;;;0.30;0.30;;;21.20;99.90;;;;;;4933753;28;20556;-83
2022/07/27 09:16:08;;;;;;;0.30;0.30;;;21.30;99.90;;;;;;4920953;28;20097;-82
2022/07/27 09:18:38;;;;;;;0.30;0.30;;;21.40;99.90;;;;;;4935349;28;20061;-82
2022/07/27 09:21:12;;;;;;;0.30;0.30;;;20.80;99.90;;;;;;4937960;28;20046;-82
2022/07/27 09:23:40;;;;;;;0.30;0.30;;;20.90;99.90;;;;;;4931969;28;20680;-82
2022/07/27 09:26:11;;;;;;;0.30;0.30;;;21.10;99.90;;;;;;4921973;28;20054;-82
2022/07/27 09:28:37;;;;;;;0.30;0.30;;;21.20;99.90;;;;;;4925840;28;20426;-81
2022/07/27 09:31:14;;;;;;;0.30;0.30;;;21.40;99.90;;;;;;4940100;28;20462;-82
2022/07/27 09:33:57;;;;;;;0.30;0.30;;;21.90;99.90;;;;;;4939323;28;20054;-82
2022/07/27 09:36:26;;;;;;;0.30;0.30;;;21.30;99.90;;;;;;4936894;28;20062;-81
2022/07/27 09:39:07;;;;;;;0.30;0.30;;;21.90;99.90;;;;;;4942960;28;20053;-82
2022/07/27 09:41:40;;;;;;;0.20;0.20;;;21.70;99.90;;;;;;4924355;28;20537;-81
2022/07/27 09:44:06;;;;;;;0.30;0.30;;;22.10;99.90;;;;;;4921857;28;20993;-82
2022/07/27 09:46:34;;;;;;;0.30;0.30;;;21.90;99.90;;;;;;4927656;28;20058;-81
2022/07/27 09:49:02;;;;;;;0.30;0.30;;;22.10;99.90;;;;;;4920254;28;20065;-82
2022/07/27 09:51:29;;;;;;;0.30;0.30;;;21.90;99.90;;;;;;4923833;28;20047;-81
2022/07/27 09:53:56;;;;;;;0.30;0.30;;;21.90;99.90;;;;;;4927673;28;21016;-82
2022/07/27 09:56:28;;;;;;;0.20;0.20;;;22.50;99.90;;;;;;4926148;28;20042;-81
2022/07/27 09:58:56;;;;;;;0.30;0.30;;;22.80;99.90;;;;;;4934097;28;20069;-83
2022/07/27 10:01:23;;;;;;;0.30;0.30;;;22.80;99.90;;;;;;4924038;28;20544;-82
2022/07/27 10:03:53;;;;;;;0.30;0.30;;;23.00;99.90;;;;;;4922474;28;20052;-82
2022/07/27 10:06:21;;;;;;;0.30;0.30;;;21.10;99.90;;;;;;4946472;28;20069;-82
2022/07/27 10:08:48;;;;;;;0.30;0.30;;;20.40;99.90;;;;;;4927251;28;20089;-82
2022/07/27 10:11:15;;;;;;;0.30;0.30;;;20.00;99.90;;;;;;4935556;28;20581;-83
2022/07/27 10:13:42;;;;;;;0.30;0.30;;;19.40;99.90;;;;;;4933155;28;20406;-82
2022/07/27 10:16:14;;;;;;;0.30;0.30;;;19.10;99.90;;;;;;4952950;28;20065;-82
2022/07/27 10:19:05;;;;;;;0.30;0.30;;;19.00;99.90;;;;;;4931837;28;20112;-82
2022/07/27 10:21:32;;;;;;;0.30;0.30;;;18.90;99.90;;;;;;4935153;28;20510;-85
2022/07/27 10:24:00;;;;;;;0.30;0.30;;;18.90;99.90;;;;;;4930756;28;20476;-82
2022/07/27 10:26:25;;;;;;;0.30;0.30;;;18.90;99.90;;;;;;4937149;28;20379;-82
2022/07/27 10:28:54;;;;;;;0.30;0.30;;;19.00;99.90;;;;;;4928901;28;20058;-83
2022/07/27 10:31:26;;;;;;;0.30;0.30;;;18.60;99.90;;;;;;4935475;28;20355;-83
2022/07/27 10:33:54;;;;;;;0.30;0.30;;;18.70;99.90;;;;;;4931564;28;20046;-82
2022/07/27 10:36:22;;;;;;;0.30;0.30;;;18.60;99.90;;;;;;4934953;28;20550;-83
2022/07/27 10:38:51;;;;;;;0.30;0.30;;;18.50;99.90;;;;;;4929680;28;20054;-83
2022/07/27 10:41:27;;;;;;;0.30;0.30;;;18.60;99.90;;;;;;4935740;28;20375;-83
2022/07/27 10:44:19;;;;;;;0.30;0.30;;;18.90;99.90;;;;;;4931580;28;20257;-83
2022/07/27 10:46:58;;;;;;;0.30;0.30;;;18.90;99.90;;;;;;4927996;28;20101;-83
2022/07/27 10:49:26;;;;;;;0.30;0.30;;;19.20;99.90;;;;;;4931637;28;20153;-82
2022/07/27 10:51:53;;;;;;;0.30;0.30;;;19.40;99.90;;;;;;4926076;28;20051;-82
2022/07/27 10:54:37;;;;;;;0.30;0.30;;;19.00;99.90;;;;;;4926529;28;20058;-83
2022/07/27 10:57:06;;;;;;;0.30;0.30;;;19.20;99.90;;;;;;4929700;28;20069;-84
2022/07/27 10:59:38;;;;;;;0.30;0.30;;;19.30;99.90;;;;;;4929823;28;20054;-81
2022/07/27 11:02:08;;;;;;;0.40;0.40;;;19.60;99.90;;;;;;4924720;28;20486;-82
2022/07/27 11:04:51;;;;;;;0.30;0.30;;;20.10;99.90;;;;;;4916783;28;20058;-82
2022/07/27 11:07:20;;;;;;;0.30;0.30;;;20.40;99.90;;;;;;4920618;28;20398;-81
2022/07/27 11:09:49;;;;;;;0.30;0.30;;;20.60;99.90;;;;;;4913777;28;20046;-82
2022/07/27 11:12:16;;;;;;;0.30;0.30;;;20.40;99.90;;;;;;4906920;28;20051;-83
2022/07/27 11:14:48;;;;;;;0.30;0.30;;;21.00;99.90;;;;;;4914503;28;20051;-82
2022/07/27 11:17:15;;;;;;;0.30;0.30;;;21.20;99.90;;;;;;4914368;28;20509;-82
2022/07/27 11:19:42;;;;;;;0.30;0.30;;;21.90;99.90;;;;;;4915681;28;20110;-83
2022/07/27 11:22:07;;;;;;;0.30;0.30;;;22.00;99.90;;;;;;4917439;28;20782;-82
2022/07/27 11:24:35;;;;;;;0.30;0.30;;;22.50;99.90;;;;;;4913111;28;20058;-84
2022/07/27 11:27:02;;;;;;;0.30;0.30;;;23.20;99.90;;;;;;4923431;28;20490;-83
2022/07/27 11:29:34;;;;;;;0.30;0.30;;;23.50;99.90;;;;;;4924036;28;20075;-83
2022/07/27 11:32:00;;;;;;;0.30;0.30;;;22.80;99.90;;;;;;4926349;28;20137;-83
2022/07/27 11:34:32;;;;;;;0.30;0.30;;;22.70;99.90;;;;;;4933222;28;20046;-85
2022/07/27 11:37:01;;;;;;;0.30;0.30;;;22.60;99.90;;;;;;4920025;28;20091;-84
2022/07/27 11:39:30;;;;;;;0.30;0.30;;;22.40;99.90;;;;;;4926814;28;20101;-82
2022/07/27 11:41:58;;;;;;;0.28;0.28;;;22.30;99.90;;;;;;4921600;28;20047;-82
2022/07/27 11:44:25;;;;;;;0.30;0.30;;;22.80;99.90;;;;;;4922440;28;20051;-83
2022/07/27 11:46:52;;;;;;;0.30;0.30;;;22.70;99.90;;;;;;4926376;28;20113;-83
2022/07/27 11:49:27;;;;;;;0.30;0.30;;;22.60;99.90;;;;;;4923039;28;20131;-81
2022/07/27 11:51:58;;;;;;;0.20;0.20;;;22.70;99.90;;;;;;4923361;28;20055;-84
2022/07/27 11:54:30;;;;;;;0.30;0.30;;;21.80;99.90;;;;;;4908556;28;20059;-84
2022/07/27 11:57:01;;;;;;;0.20;0.20;;;22.40;99.90;;;;;;4909399;28;20059;-82
2022/07/27 11:59:29;;;;;;;0.20;0.20;;;22.50;99.90;;;;;;4929434;28;20061;-84
2022/07/27 12:02:05;;;;;;;0.30;0.30;;;22.70;99.90;;;;;;4914707;28;20051;-84
2022/07/27 12:04:41;;;;;;;0.30;0.30;;;23.50;99.90;;;;;;4922345;28;20047;-83
2022/07/27 12:07:10;;;;;;;0.30;0.30;;;22.50;99.90;;;;;;4926258;28;20054;-85
2022/07/27 12:10:13;;;;;;;0.30;0.30;;;22.30;99.90;;;;;;4922064;28;20145;-84
2022/07/27 12:12:39;;;;;;;0.20;0.20;;;22.20;99.90;;;;;;4840055;29;20101;-84
2022/07/27 12:15:15;;;;;;;0.20;0.20;;;22.10;99.90;;;;;;4902663;28;20102;-82
2022/07/27 12:17:42;;;;;;;0.30;0.30;;;21.50;99.90;;;;;;4922108;28;20624;-84
2022/07/27 12:20:13;;;;;;;0.30;0.30;;;21.70;99.90;;;;;;4919665;28;20075;-82
2022/07/27 12:22:50;;;;;;;0.30;0.30;;;21.50;99.90;;;;;;4923039;28;20054;-83
2022/07/27 12:25:16;;;;;;;0.30;0.30;;;21.30;99.90;;;;;;4920663;28;20138;-84
2022/07/27 12:28:05;;;;;;;0.30;0.30;;;21.30;99.90;;;;;;4919167;28;20055;-83
2022/07/27 12:30:38;;;;;;;0.20;0.20;;;21.10;99.90;;;;;;4922496;28;20055;-84
2022/07/27 12:33:07;;;;;;;0.30;0.30;;;22.10;99.90;;;;;;4917853;28;20129;-83
2022/07/27 12:35:45;;;;;;;0.30;0.30;;;22.10;99.90;;;;;;4904351;28;20153;-82
2022/07/27 12:38:12;;;;;;;0.30;0.30;;;22.80;99.90;;;;;;4919595;28;20300;-84
2022/07/27 12:40:47;;;;;;;0.30;0.30;;;23.00;99.90;;;;;;4918596;28;20971;-84
2022/07/27 12:43:18;;;;;;;0.30;0.30;;;23.20;99.90;;;;;;4907857;28;20165;-84
2022/07/27 12:45:45;;;;;;;0.30;0.30;;;23.20;99.90;;;;;;4924650;28;20051;-84
2022/07/27 12:48:17;;;;;;;0.30;0.30;;;23.30;99.90;;;;;;4923082;28;20067;-84
2022/07/27 12:51:03;;;;;;;0.30;0.30;;;23.20;99.90;;;;;;4924490;28;20225;-83
2022/07/27 12:53:31;;;;;;;0.30;0.30;;;23.00;99.90;;;;;;4924634;28;20055;-84
2022/07/27 12:55:59;;;;;;;0.30;0.30;;;23.10;99.90;;;;;;4924744;28;20083;-85